createdAt,value
2023-05-10T09:48:49.510Z,3.50
2023-05-10T09:51:23.201Z,3.30
2023-05-10T09:54:18.242Z,3.50
2023-05-10T09:56:46.660Z,3.20
2023-05-10T09:59:14.999Z,3.10
2023-05-10T10:01:50.308Z,3.80
2023-05-10T10:04:19.198Z,3.40
2023-05-10T10:06:48.206Z,3.40
2023-05-10T10:09:16.619Z,3.00
2023-05-10T10:12:06.414Z,3.10
2023-05-10T10:14:35.658Z,3.20
2023-05-10T10:17:09.228Z,2.80
2023-05-10T10:19:38.856Z,3.30
2023-05-10T10:24:37.880Z,3.10
2023-05-10T10:28:00.322Z,3.30
2023-05-10T10:30:43.693Z,3.30
2023-05-10T10:33:42.044Z,3.50
2023-05-10T10:36:10.769Z,2.90
2023-05-10T10:38:51.487Z,3.00
2023-05-10T10:41:32.393Z,3.20
2023-05-10T10:44:52.199Z,3.20
2023-05-10T10:47:31.192Z,5.40
2023-05-10T10:50:14.200Z,5.40
2023-05-10T10:53:14.307Z,3.90
2023-05-10T10:55:49.543Z,4.10
2023-05-10T10:58:35.023Z,3.50
2023-05-10T11:01:17.976Z,3.20
2023-05-10T11:04:04.373Z,3.90
2023-05-10T11:06:34.695Z,3.20
2023-05-10T11:09:11.450Z,3.30
2023-05-10T11:14:23.864Z,3.50
2023-05-10T11:16:56.387Z,3.20
2023-05-10T11:19:33.235Z,2.90
2023-05-10T11:22:06.732Z,3.30
2023-05-10T11:24:37.644Z,3.10
2023-05-10T11:27:08.664Z,3.80
2023-05-10T11:29:37.420Z,3.80
2023-05-10T11:35:30.314Z,3.10
2023-05-10T11:38:39.194Z,3.00
2023-05-10T11:41:14.648Z,2.90
2023-05-10T11:43:47.972Z,3.50
2023-05-10T11:46:28.085Z,3.60
2023-05-10T11:49:03.044Z,3.20
2023-05-10T11:51:38.215Z,3.30
2023-05-10T11:54:11.841Z,3.20
2023-05-10T11:56:41.921Z,3.60
2023-05-10T11:59:10.349Z,3.40
2023-05-10T12:01:39.003Z,3.90
2023-05-10T12:04:07.859Z,3.30
2023-05-10T12:06:41.830Z,3.20
2023-05-10T12:09:10.374Z,3.70
2023-05-10T12:11:44.654Z,4.20
2023-05-10T12:14:13.348Z,3.90
2023-05-10T12:16:42.074Z,3.80
2023-05-10T12:19:11.035Z,3.00
2023-05-10T12:21:40.222Z,3.10
2023-05-10T12:24:09.064Z,3.20
2023-05-10T12:29:20.517Z,3.20
2023-05-10T12:32:00.032Z,3.80
2023-05-10T12:34:34.147Z,3.10
2023-05-10T12:37:04.637Z,2.90
2023-05-10T12:39:44.407Z,3.10
2023-05-10T12:42:24.019Z,3.30
2023-05-10T12:45:01.290Z,3.00
2023-05-10T12:49:58.468Z,3.10
2023-05-10T12:52:27.946Z,3.10
2023-05-10T12:54:56.332Z,3.40
2023-05-10T12:57:24.652Z,3.30
2023-05-10T12:59:53.453Z,3.20
2023-05-10T13:02:22.581Z,4.10
2023-05-10T13:04:51.643Z,2.80
2023-05-10T13:07:20.334Z,3.30
2023-05-10T13:09:48.837Z,3.40
2023-05-10T13:12:16.998Z,3.60
2023-05-10T13:14:45.352Z,3.50
2023-05-10T13:17:13.637Z,3.30
2023-05-10T13:19:42.009Z,3.10
2023-05-10T13:22:10.374Z,2.90
2023-05-10T13:24:38.664Z,3.30
2023-05-10T13:27:06.878Z,3.10
2023-05-10T13:29:35.087Z,3.10
2023-05-10T13:32:03.512Z,3.10
2023-05-10T13:34:31.825Z,3.10
2023-05-10T13:37:00.136Z,2.90
2023-05-10T13:39:28.616Z,3.40
2023-05-10T13:41:56.849Z,3.20
2023-05-10T13:44:25.138Z,3.30
2023-05-10T13:46:53.620Z,3.20
2023-05-10T13:49:23.175Z,3.20
2023-05-10T13:54:21.074Z,3.20
2023-05-10T13:56:49.855Z,3.20
2023-05-10T13:59:18.415Z,3.10
2023-05-10T14:01:47.077Z,2.60
2023-05-10T14:04:15.530Z,3.30
2023-05-10T14:06:43.775Z,3.10
2023-05-10T14:09:11.986Z,4.80
2023-05-10T14:11:44.231Z,4.40
2023-05-10T14:14:14.436Z,3.50
2023-05-10T14:16:46.107Z,3.80
2023-05-10T14:19:14.585Z,4.90
2023-05-10T14:21:42.905Z,6.50
2023-05-10T14:24:11.363Z,11.00
2023-05-10T14:26:39.632Z,14.90
2023-05-10T14:29:09.325Z,4.80
2023-05-10T14:31:39.081Z,6.50
2023-05-10T14:34:07.991Z,4.70
2023-05-10T14:36:36.178Z,4.50
2023-05-10T14:39:05.176Z,3.40
2023-05-10T14:41:34.186Z,3.90
2023-05-10T14:44:04.587Z,3.50
2023-05-10T14:46:32.975Z,3.40
2023-05-10T14:49:01.235Z,3.70
2023-05-10T14:51:29.514Z,3.20
2023-05-10T14:53:57.838Z,3.70
2023-05-10T14:56:27.249Z,3.60
2023-05-10T14:58:55.628Z,3.50
2023-05-10T15:01:25.733Z,3.40
2023-05-10T15:03:55.755Z,3.40
2023-05-10T15:06:31.436Z,4.70
2023-05-10T15:08:59.686Z,3.90
2023-05-10T15:11:28.435Z,4.50
2023-05-10T15:13:56.746Z,4.70
2023-05-10T15:16:25.251Z,4.10
2023-05-10T15:18:53.925Z,3.50
2023-05-10T15:21:22.703Z,3.40
2023-05-10T15:23:50.973Z,3.30
2023-05-10T15:26:44.445Z,3.90
2023-05-10T15:29:22.127Z,3.40
2023-05-10T15:32:25.670Z,3.50
2023-05-10T15:35:21.453Z,4.20
2023-05-10T15:38:06.776Z,4.60
2023-05-10T15:40:35.353Z,4.80
2023-05-10T15:43:03.919Z,4.90
2023-05-10T15:45:32.653Z,5.50
2023-05-10T15:48:02.232Z,5.80
2023-05-10T15:50:30.726Z,4.10
2023-05-10T15:52:59.014Z,3.40
2023-05-10T15:55:27.877Z,3.60
2023-05-10T15:57:57.010Z,6.10
2023-05-10T16:00:26.611Z,5.30
2023-05-10T16:03:12.291Z,5.10
2023-05-10T16:05:45.982Z,5.30
2023-05-10T16:08:15.172Z,4.80
2023-05-10T16:10:43.828Z,4.50
2023-05-10T16:13:12.763Z,4.50
2023-05-10T16:15:44.148Z,3.70
2023-05-10T16:18:14.917Z,4.40
2023-05-10T16:20:44.702Z,5.10
2023-05-10T16:23:15.635Z,5.20
2023-05-10T16:25:48.055Z,4.90
2023-05-10T16:28:16.734Z,5.10
2023-05-10T16:30:45.120Z,4.60
2023-05-10T16:33:14.506Z,5.00
2023-05-10T16:38:11.611Z,4.40
2023-05-10T16:40:40.045Z,5.70
2023-05-10T16:43:15.830Z,6.00
2023-05-10T16:45:44.742Z,5.00
2023-05-10T16:48:13.763Z,8.90
2023-05-10T16:51:04.943Z,10.60
2023-05-10T16:53:34.034Z,5.70
2023-05-10T16:56:07.507Z,3.90
2023-05-10T16:58:36.398Z,5.70
2023-05-10T17:01:05.330Z,5.20
2023-05-10T17:03:34.092Z,6.20
2023-05-10T17:06:02.863Z,4.60
2023-05-10T17:08:31.411Z,4.50
2023-05-10T17:11:04.380Z,5.30
2023-05-10T17:13:33.273Z,4.50
2023-05-10T17:16:05.365Z,4.70
2023-05-10T17:18:34.056Z,6.90
2023-05-10T17:21:03.483Z,6.00
2023-05-10T17:23:32.173Z,7.00
2023-05-10T17:26:01.764Z,6.90
2023-05-10T17:28:30.273Z,10.20
2023-05-10T17:30:59.350Z,6.30
2023-05-10T17:33:27.936Z,5.80
2023-05-10T17:35:57.012Z,6.30
2023-05-10T17:38:25.779Z,6.00
2023-05-10T17:40:55.216Z,5.40
2023-05-10T17:43:24.073Z,5.00
2023-05-10T17:45:52.487Z,5.70
2023-05-10T17:48:22.403Z,5.00
2023-05-10T17:51:02.096Z,4.80
2023-05-10T17:53:32.560Z,5.10
2023-05-10T17:56:02.005Z,4.40
2023-05-10T17:58:31.314Z,4.70
2023-05-10T18:00:59.759Z,4.80
2023-05-10T18:03:28.380Z,4.80
2023-05-10T18:05:57.336Z,17.60
2023-05-10T18:08:27.508Z,20.20
2023-05-10T18:10:56.775Z,10.10
2023-05-10T18:13:25.792Z,7.40
2023-05-10T18:15:54.373Z,8.20
2023-05-10T18:18:23.117Z,6.70
2023-05-10T18:20:56.884Z,6.70
2023-05-10T18:23:25.325Z,5.50
2023-05-10T18:25:54.129Z,5.40
2023-05-10T18:28:22.621Z,5.90
2023-05-10T18:30:51.580Z,6.00
2023-05-10T18:33:20.266Z,7.40
2023-05-10T18:35:48.617Z,9.20
2023-05-10T18:38:17.311Z,11.10
2023-05-10T18:40:45.675Z,12.10
2023-05-10T18:43:14.088Z,11.60
2023-05-10T18:45:45.418Z,7.70
2023-05-10T18:48:14.208Z,7.10
2023-05-10T18:50:42.555Z,5.40
2023-05-10T18:53:10.979Z,4.40
2023-05-10T18:55:40.109Z,4.40
2023-05-10T18:58:09.396Z,4.10
2023-05-10T19:00:37.706Z,4.30
2023-05-10T19:03:06.247Z,4.80
2023-05-10T19:05:36.239Z,5.90
2023-05-10T19:08:04.748Z,6.50
2023-05-10T19:10:33.276Z,9.20
2023-05-10T19:13:01.629Z,8.20
2023-05-10T19:15:29.991Z,6.70
2023-05-10T19:17:58.342Z,5.80
2023-05-10T19:20:27.017Z,5.50
2023-05-10T19:23:09.030Z,4.50
2023-05-10T19:25:42.596Z,4.50
2023-05-10T19:28:11.954Z,4.20
2023-05-10T19:30:40.940Z,4.40
2023-05-10T19:33:10.623Z,4.20
2023-05-10T19:38:07.694Z,5.10
2023-05-10T19:40:41.324Z,5.40
2023-05-10T19:43:10.015Z,5.60
2023-05-10T19:45:41.151Z,5.20
2023-05-10T19:48:11.377Z,4.40
2023-05-10T19:50:40.199Z,4.60
2023-05-10T19:53:15.949Z,4.10
2023-05-10T19:55:50.192Z,4.50
2023-05-10T19:59:06.697Z,4.30
2023-05-10T20:01:09.849Z,4.30
2023-05-10T20:03:38.676Z,4.10
2023-05-10T20:06:16.299Z,4.80
2023-05-10T20:08:45.458Z,5.30
2023-05-10T20:11:14.567Z,5.60
2023-05-10T20:13:43.143Z,6.70
2023-05-10T20:16:19.787Z,7.50
2023-05-10T20:19:12.368Z,7.20
2023-05-10T20:21:44.467Z,5.80
2023-05-10T20:24:13.177Z,5.60
2023-05-10T20:26:44.926Z,5.20
2023-05-10T20:29:16.375Z,5.40
2023-05-10T20:31:45.036Z,5.40
2023-05-10T20:34:15.764Z,4.70
2023-05-10T20:36:44.419Z,4.40
2023-05-10T20:39:13.320Z,4.50
2023-05-10T20:41:42.277Z,4.60
2023-05-10T20:44:10.854Z,4.80
2023-05-10T20:46:51.415Z,4.80
2023-05-10T20:49:20.057Z,4.50
2023-05-10T20:51:51.730Z,5.30
2023-05-10T20:54:23.398Z,5.60
2023-05-10T20:56:52.337Z,5.20
2023-05-10T20:59:22.136Z,5.80
2023-05-10T21:02:00.466Z,4.80
2023-05-10T21:04:29.279Z,4.40
2023-05-10T21:06:58.054Z,4.70
2023-05-10T21:09:28.008Z,4.50
2023-05-10T21:11:58.065Z,4.10
2023-05-10T21:14:30.704Z,4.00
2023-05-10T21:16:59.034Z,4.30
2023-05-10T21:19:27.341Z,4.40
2023-05-10T21:21:58.813Z,4.40
2023-05-10T21:24:29.824Z,4.10
2023-05-10T21:26:58.367Z,4.20
2023-05-10T21:29:27.540Z,4.70
2023-05-10T21:31:55.908Z,4.20
2023-05-10T21:34:24.290Z,4.70
2023-05-10T21:36:54.890Z,4.50
2023-05-10T21:39:23.207Z,4.30
2023-05-10T21:41:51.734Z,4.60
2023-05-10T21:44:20.082Z,4.30
2023-05-10T21:46:48.571Z,4.30
2023-05-10T21:49:16.842Z,4.00
2023-05-10T21:51:45.133Z,3.60
2023-05-10T21:54:13.477Z,3.80
2023-05-10T21:56:44.385Z,3.50
2023-05-10T21:59:12.693Z,4.20
2023-05-10T22:01:41.455Z,4.00
2023-05-10T22:04:10.092Z,3.80
2023-05-10T22:06:38.770Z,3.90
2023-05-10T22:09:07.118Z,4.00
2023-05-10T22:11:35.342Z,3.60
2023-05-10T22:14:03.731Z,3.60
2023-05-10T22:16:32.086Z,4.00
2023-05-10T22:19:00.335Z,4.30
2023-05-10T22:21:28.835Z,4.00
2023-05-10T22:23:57.554Z,4.10
2023-05-10T22:26:26.246Z,4.50
2023-05-10T22:28:54.628Z,3.90
2023-05-10T22:31:22.957Z,4.10
2023-05-10T22:33:51.340Z,4.20
2023-05-10T22:36:19.569Z,4.20
2023-05-10T22:38:47.973Z,3.70
2023-05-10T22:41:16.409Z,3.50
2023-05-10T22:43:45.873Z,4.10
2023-05-10T22:46:14.265Z,3.60
2023-05-10T22:48:43.572Z,3.90
2023-05-10T22:51:12.215Z,3.70
2023-05-10T22:53:41.481Z,3.70
2023-05-10T22:56:09.858Z,4.00
2023-05-10T22:58:38.560Z,4.20
2023-05-10T23:01:15.305Z,4.10
2023-05-10T23:03:43.592Z,4.30
2023-05-10T23:06:11.893Z,4.00
2023-05-10T23:08:40.444Z,3.90
2023-05-10T23:11:08.716Z,3.90
2023-05-10T23:13:37.011Z,3.70
2023-05-10T23:16:08.842Z,3.70
2023-05-10T23:18:37.188Z,4.00
2023-05-10T23:21:06.212Z,3.80
2023-05-10T23:23:34.876Z,3.90
2023-05-10T23:26:04.960Z,4.00
2023-05-10T23:31:01.330Z,4.30
2023-05-10T23:33:29.956Z,4.30
2023-05-10T23:35:58.182Z,4.20
2023-05-10T23:38:26.864Z,3.60
2023-05-10T23:40:55.292Z,3.70
2023-05-10T23:43:23.522Z,3.90
2023-05-10T23:45:56.358Z,3.80
2023-05-10T23:48:24.728Z,4.10
2023-05-10T23:50:53.010Z,3.60
2023-05-10T23:53:21.437Z,3.90
2023-05-10T23:55:52.272Z,4.10
2023-05-10T23:58:21.439Z,5.10
